Time;durP1;ratioP1;P1;durP2;ratioP2;P2;SDS_P1;SDS_P2;PMS_P1;PMS_P2;Temp;Humidity;BMP_temperature;BMP_pressure;BME280_temperature;BME280_humidity;BME280_pressure;Samples;Min_cycle;Max_cycle;Signal;HPM_P1;HPM_P2
2023/11/22 00:01:29;;;;;;;28.67;16.95;;;;;;;;;;6237594;28;20077;-95
2023/11/22 00:04:32;;;;;;;27.48;16.30;;;;;;;;;;6247687;28;20057;-94
2023/11/22 00:07:36;;;;;;;29.67;17.15;;;;;;;;;;6244745;28;20124;-93
2023/11/22 00:10:40;;;;;;;37.83;20.98;;;;;;;;;;6232477;28;20316;-92
2023/11/22 00:13:42;;;;;;;77.77;42.30;;;;;;;;;;6251840;28;20780;-95
2023/11/22 00:16:44;;;;;;;80.95;36.72;;;;;;;;;;6233310;28;20049;-95
2023/11/22 00:23:04;;;;;;;49.15;24.10;;;;;;;;;;6218472;28;20226;-93
2023/11/22 00:26:06;;;;;;;77.88;37.03;;;;;;;;;;6222403;28;20042;-94
2023/11/22 00:29:08;;;;;;;27.02;17.88;;;;;;;;;;6231707;28;20381;-94
2023/11/22 00:32:10;;;;;;;26.50;16.17;;;;;;;;;;6247362;28;20049;-94
2023/11/22 00:35:13;;;;;;;25.30;16.02;;;;;;;;;;6238116;28;20245;-94
2023/11/22 00:38:16;;;;;;;24.30;15.03;;;;;;;;;;6250145;28;20037;-95
2023/11/22 00:41:18;;;;;;;25.35;15.55;;;;;;;;;;6249619;28;20480;-91
2023/11/22 00:44:20;;;;;;;23.83;14.82;;;;;;;;;;6252025;28;20049;-94
2023/11/22 00:47:22;;;;;;;24.55;15.25;;;;;;;;;;6252103;28;20559;-93
2023/11/22 00:53:41;;;;;;;25.70;14.60;;;;;;;;;;6252644;28;20050;-95
2023/11/22 00:56:43;;;;;;;28.90;15.68;;;;;;;;;;6254626;28;20052;-94
2023/11/22 00:59:47;;;;;;;22.70;15.10;;;;;;;;;;6254150;28;20056;-94
2023/11/22 01:02:49;;;;;;;26.27;14.43;;;;;;;;;;6252641;28;20061;-93
2023/11/22 01:05:53;;;;;;;21.73;14.10;;;;;;;;;;6250644;28;20060;-94
2023/11/22 01:08:55;;;;;;;25.27;14.15;;;;;;;;;;6235964;28;20057;-94
2023/11/22 01:11:56;;;;;;;23.40;13.90;;;;;;;;;;6250470;28;20348;-93
2023/11/22 01:14:59;;;;;;;20.58;13.63;;;;;;;;;;6255216;28;20045;-96
2023/11/22 01:18:01;;;;;;;25.20;13.38;;;;;;;;;;6253359;28;20325;-94
2023/11/22 01:21:04;;;;;;;21.13;13.63;;;;;;;;;;6250733;28;20064;-93
2023/11/22 01:24:07;;;;;;;21.38;12.98;;;;;;;;;;6245673;28;20352;-93
2023/11/22 01:27:09;;;;;;;19.25;12.88;;;;;;;;;;6231679;28;20065;-95
2023/11/22 01:30:12;;;;;;;19.85;12.90;;;;;;;;;;6250327;28;20128;-94
2023/11/22 01:33:14;;;;;;;20.90;12.15;;;;;;;;;;6246357;28;20041;-93
2023/11/22 01:36:17;;;;;;;21.20;12.68;;;;;;;;;;6213064;28;20077;-96
2023/11/22 01:39:19;;;;;;;24.20;12.47;;;;;;;;;;6247727;28;20065;-96
2023/11/22 01:42:23;;;;;;;24.75;12.63;;;;;;;;;;6246905;28;20049;-93
2023/11/22 01:45:26;;;;;;;24.23;12.30;;;;;;;;;;6246672;28;20064;-93
2023/11/22 01:48:37;;;;;;;20.08;12.15;;;;;;;;;;6227419;28;20060;-94
2023/11/22 01:51:41;;;;;;;18.70;12.43;;;;;;;;;;6227319;28;20107;-96
2023/11/22 01:54:44;;;;;;;;;;;;;;;;;;6247696;28;20330;-96
2023/11/22 01:57:45;;;;;;;22.90;12.95;;;;;;;;;;6242645;28;19925;-93
2023/11/22 02:00:51;;;;;;;20.45;12.27;;;;;;;;;;6247671;28;20346;-94
2023/11/22 02:03:53;;;;;;;19.65;11.90;;;;;;;;;;6233100;28;20215;-93
2023/11/22 02:06:57;;;;;;;19.70;11.70;;;;;;;;;;6251681;28;20056;-94
2023/11/22 02:09:59;;;;;;;18.80;11.93;;;;;;;;;;6227258;28;20054;-94
2023/11/22 02:13:04;;;;;;;19.63;11.77;;;;;;;;;;6247172;28;20056;-94
2023/11/22 02:16:07;;;;;;;19.23;12.23;;;;;;;;;;6217975;28;20048;-93
2023/11/22 02:19:15;;;;;;;21.40;12.05;;;;;;;;;;6214400;28;20083;-94
2023/11/22 02:22:18;;;;;;;20.88;12.05;;;;;;;;;;6254763;28;20064;-94
2023/11/22 02:25:22;;;;;;;20.83;12.60;;;;;;;;;;6247028;28;20162;-93
2023/11/22 02:28:24;;;;;;;19.47;12.10;;;;;;;;;;6249218;28;20053;-95
2023/11/22 02:31:27;;;;;;;21.33;12.18;;;;;;;;;;6246092;28;20456;-95
2023/11/22 02:34:29;;;;;;;19.27;13.13;;;;;;;;;;6228816;28;20088;-94
2023/11/22 02:37:31;;;;;;;18.65;11.57;;;;;;;;;;6248471;28;20057;-94
2023/11/22 02:40:34;;;;;;;20.83;12.38;;;;;;;;;;6247348;28;20050;-95
2023/11/22 02:43:36;;;;;;;18.95;11.98;;;;;;;;;;6247398;28;20053;-93
2023/11/22 02:46:39;;;;;;;20.27;11.68;;;;;;;;;;6251918;28;20341;-95
2023/11/22 02:49:40;;;;;;;22.25;11.88;;;;;;;;;;6250047;28;20338;-95
2023/11/22 02:52:42;;;;;;;20.25;12.52;;;;;;;;;;6245874;28;20053;-95
2023/11/22 02:55:46;;;;;;;23.42;11.95;;;;;;;;;;6250778;28;20045;-94
2023/11/22 02:58:48;;;;;;;19.67;12.10;;;;;;;;;;6246168;28;20069;-95
2023/11/22 03:01:51;;;;;;;17.98;11.77;;;;;;;;;;6235335;28;20491;-94
2023/11/22 03:04:53;;;;;;;23.55;11.98;;;;;;;;;;6254922;28;20330;-95
2023/11/22 03:07:55;;;;;;;20.50;11.65;;;;;;;;;;6257673;28;20053;-95
2023/11/22 03:10:58;;;;;;;20.38;11.75;;;;;;;;;;6237209;28;20120;-94
2023/11/22 03:14:03;;;;;;;20.25;12.43;;;;;;;;;;6253099;28;20123;-95
2023/11/22 03:17:05;;;;;;;19.52;11.43;;;;;;;;;;6235355;28;20049;-94
2023/11/22 03:20:09;;;;;;;22.92;12.45;;;;;;;;;;6250090;28;20051;-95
2023/11/22 03:23:12;;;;;;;21.00;12.38;;;;;;;;;;6254935;28;20091;-96
2023/11/22 03:29:30;;;;;;;22.40;11.60;;;;;;;;;;6243861;28;20057;-92
2023/11/22 03:32:36;;;;;;;20.85;11.55;;;;;;;;;;6255703;28;20384;-93
2023/11/22 03:35:39;;;;;;;21.38;12.38;;;;;;;;;;6258728;28;20045;-94
2023/11/22 03:38:41;;;;;;;20.70;12.07;;;;;;;;;;6234849;28;20049;-95
2023/11/22 03:45:00;;;;;;;19.95;12.48;;;;;;;;;;6225840;28;20114;-93
2023/11/22 03:48:02;;;;;;;21.08;12.80;;;;;;;;;;6230897;28;20245;-95
2023/11/22 03:51:04;;;;;;;23.85;13.55;;;;;;;;;;6249979;28;20393;-94
2023/11/22 03:54:06;;;;;;;22.15;13.40;;;;;;;;;;6248316;28;20126;-95
2023/11/22 03:57:10;;;;;;;25.38;13.75;;;;;;;;;;6248074;28;20273;-93
2023/11/22 04:00:13;;;;;;;26.20;15.43;;;;;;;;;;6237287;28;20056;-94
2023/11/22 04:03:15;;;;;;;22.67;14.40;;;;;;;;;;6254206;28;20634;-94
2023/11/22 04:06:18;;;;;;;25.25;14.75;;;;;;;;;;6248203;28;20057;-93
2023/11/22 04:09:20;;;;;;;27.03;15.57;;;;;;;;;;6252655;28;20048;-93
2023/11/22 04:12:24;;;;;;;28.88;15.48;;;;;;;;;;6249390;28;20050;-94
2023/11/22 04:15:26;;;;;;;31.27;16.38;;;;;;;;;;6235957;28;20321;-94
2023/11/22 04:18:29;;;;;;;28.50;16.95;;;;;;;;;;6250148;28;20136;-95
2023/11/22 04:21:30;;;;;;;26.70;15.98;;;;;;;;;;6249397;28;20060;-94
2023/11/22 04:24:32;;;;;;;26.95;15.18;;;;;;;;;;6248577;28;20053;-94
2023/11/22 04:27:36;;;;;;;29.30;16.52;;;;;;;;;;6208166;28;20294;-94
2023/11/22 04:30:38;;;;;;;26.58;16.25;;;;;;;;;;6232603;28;20099;-94
2023/11/22 04:33:40;;;;;;;26.85;15.93;;;;;;;;;;6251786;28;20049;-94
2023/11/22 04:36:42;;;;;;;27.08;16.23;;;;;;;;;;6252245;28;20223;-93
2023/11/22 04:39:44;;;;;;;25.98;15.80;;;;;;;;;;6249156;28;20045;-95
2023/11/22 04:42:48;;;;;;;30.58;16.15;;;;;;;;;;6247177;28;20100;-95
2023/11/22 04:46:09;;;;;;;27.52;16.02;;;;;;;;;;6217978;28;20405;-96
2023/11/22 04:49:11;;;;;;;25.70;15.23;;;;;;;;;;6230662;28;20050;-95
2023/11/22 04:52:13;;;;;;;28.08;16.35;;;;;;;;;;6246321;28;20061;-95
2023/11/22 04:55:15;;;;;;;28.42;16.15;;;;;;;;;;6230244;28;20364;-93
2023/11/22 04:58:19;;;;;;;30.10;16.67;;;;;;;;;;6247487;28;20092;-94
2023/11/22 05:01:20;;;;;;;26.37;16.07;;;;;;;;;;6244401;28;20069;-95
2023/11/22 05:04:22;;;;;;;25.70;15.65;;;;;;;;;;6246507;28;20053;-95
2023/11/22 05:07:25;;;;;;;28.30;17.02;;;;;;;;;;6250692;28;20056;-95
2023/11/22 05:10:26;;;;;;;29.27;17.17;;;;;;;;;;6229109;28;20121;-94
2023/11/22 05:13:30;;;;;;;32.47;17.27;;;;;;;;;;6253999;28;20055;-96
2023/11/22 05:16:33;;;;;;;31.67;16.88;;;;;;;;;;6246513;28;20057;-95
2023/11/22 05:19:35;;;;;;;27.05;15.65;;;;;;;;;;6252037;28;20277;-95
2023/11/22 05:22:37;;;;;;;26.05;15.23;;;;;;;;;;6248785;28;20270;-95
2023/11/22 05:25:39;;;;;;;27.65;16.40;;;;;;;;;;6250152;28;20372;-93
2023/11/22 05:28:43;;;;;;;25.60;15.85;;;;;;;;;;6252393;28;20142;-93
2023/11/22 05:31:44;;;;;;;30.30;16.07;;;;;;;;;;6226122;28;20049;-93
2023/11/22 05:34:46;;;;;;;27.27;16.52;;;;;;;;;;6233080;28;20053;-92
2023/11/22 05:37:48;;;;;;;25.83;14.82;;;;;;;;;;6245729;28;20310;-94
2023/11/22 05:40:50;;;;;;;24.23;14.65;;;;;;;;;;6228627;28;20107;-94
2023/11/22 05:43:54;;;;;;;25.42;14.50;;;;;;;;;;6249212;28;20064;-93
2023/11/22 05:46:56;;;;;;;25.40;15.07;;;;;;;;;;6233233;28;20237;-93
2023/11/22 05:49:57;;;;;;;29.50;14.23;;;;;;;;;;6253301;28;20460;-93
2023/11/22 05:53:00;;;;;;;23.92;12.98;;;;;;;;;;6251064;28;20052;-91
2023/11/22 05:56:01;;;;;;;22.52;13.23;;;;;;;;;;6245677;28;20061;-93
2023/11/22 05:59:05;;;;;;;23.45;13.95;;;;;;;;;;6244600;28;20057;-93
2023/11/22 06:02:07;;;;;;;24.05;13.65;;;;;;;;;;6245322;28;20095;-92
2023/11/22 06:05:11;;;;;;;21.98;13.18;;;;;;;;;;6248677;28;20365;-92
2023/11/22 06:08:12;;;;;;;22.83;13.32;;;;;;;;;;6248213;28;20049;-92
2023/11/22 06:11:14;;;;;;;25.25;13.63;;;;;;;;;;6247520;28;20061;-92
2023/11/22 06:14:19;;;;;;;21.35;13.50;;;;;;;;;;6245070;28;20249;-93
2023/11/22 06:17:21;;;;;;;27.50;14.25;;;;;;;;;;6249100;28;20062;-91
2023/11/22 06:20:24;;;;;;;21.55;12.82;;;;;;;;;;6242145;28;20057;-94
2023/11/22 06:23:25;;;;;;;22.88;13.60;;;;;;;;;;6244557;28;20061;-94
2023/11/22 06:26:27;;;;;;;23.52;13.30;;;;;;;;;;6245467;28;20069;-94
2023/11/22 06:29:30;;;;;;;22.52;12.85;;;;;;;;;;6249625;28;20057;-92
2023/11/22 06:32:33;;;;;;;20.88;13.10;;;;;;;;;;6244084;28;20065;-93
2023/11/22 06:35:36;;;;;;;24.40;14.32;;;;;;;;;;6243657;28;20431;-92
2023/11/22 06:38:38;;;;;;;30.27;13.75;;;;;;;;;;6243772;28;20084;-91
2023/11/22 06:41:42;;;;;;;24.85;14.38;;;;;;;;;;6249201;28;20064;-91
2023/11/22 06:48:02;;;;;;;24.50;13.98;;;;;;;;;;6218351;28;20314;-93
2023/11/22 06:51:04;;;;;;;20.50;12.68;;;;;;;;;;6249768;28;20273;-93
2023/11/22 06:54:06;;;;;;;24.85;13.82;;;;;;;;;;6243008;28;20299;-93
2023/11/22 06:57:08;;;;;;;23.58;13.75;;;;;;;;;;6243659;28;20068;-93
2023/11/22 07:00:13;;;;;;;20.75;12.23;;;;;;;;;;6247907;28;20060;-93
2023/11/22 07:03:15;;;;;;;25.70;14.27;;;;;;;;;;6168299;28;20042;-93
2023/11/22 07:06:18;;;;;;;23.50;13.65;;;;;;;;;;6242184;28;20414;-92
2023/11/22 07:09:20;;;;;;;24.27;13.48;;;;;;;;;;6246199;28;20064;-92
2023/11/22 07:12:22;;;;;;;27.48;14.35;;;;;;;;;;6247456;28;20376;-92
2023/11/22 07:15:26;;;;;;;22.73;12.65;;;;;;;;;;6232828;28;20045;-92
2023/11/22 07:18:28;;;;;;;;;;;;;;;;;;6228860;28;20068;-92
2023/11/22 07:21:30;;;;;;;22.08;12.10;;;;;;;;;;6243690;28;19918;-92
2023/11/22 07:24:34;;;;;;;22.17;11.48;;;;;;;;;;6245968;28;20056;-92
2023/11/22 07:27:36;;;;;;;22.83;12.80;;;;;;;;;;6244954;28;20053;-92
2023/11/22 07:33:56;;;;;;;23.20;11.55;;;;;;;;;;6231051;28;20053;-92
2023/11/22 07:36:58;;;;;;;20.83;11.45;;;;;;;;;;6244966;28;20057;-92
2023/11/22 07:40:03;;;;;;;21.27;10.90;;;;;;;;;;6245050;28;20246;-90
2023/11/22 07:43:05;;;;;;;17.42;10.60;;;;;;;;;;6228403;28;20237;-90
2023/11/22 07:49:28;;;;;;;20.25;10.25;;;;;;;;;;6222689;28;20128;-91
2023/11/22 07:52:30;;;;;;;19.42;10.73;;;;;;;;;;6250393;28;20345;-91
2023/11/22 07:55:37;;;;;;;17.88;10.13;;;;;;;;;;6248509;28;20049;-91
2023/11/22 07:58:39;;;;;;;18.52;10.65;;;;;;;;;;6247149;28;20109;-91
2023/11/22 08:01:44;;;;;;;16.52;9.95;;;;;;;;;;6252905;28;20212;-91
2023/11/22 08:04:47;;;;;;;15.45;10.00;;;;;;;;;;6244362;28;20053;-91
2023/11/22 08:07:49;;;;;;;17.33;10.27;;;;;;;;;;6245741;28;20121;-89
2023/11/22 08:10:53;;;;;;;17.00;10.13;;;;;;;;;;6245327;28;20342;-91
2023/11/22 08:13:57;;;;;;;17.25;10.05;;;;;;;;;;6232140;28;20069;-90
2023/11/22 08:17:01;;;;;;;19.67;10.10;;;;;;;;;;6231053;28;20234;-90
2023/11/22 08:20:05;;;;;;;15.38;9.20;;;;;;;;;;6254065;28;20057;-90
2023/11/22 08:23:08;;;;;;;17.63;9.60;;;;;;;;;;6246362;28;20056;-91
2023/11/22 08:26:11;;;;;;;16.90;11.02;;;;;;;;;;6248961;28;20057;-89
2023/11/22 08:29:14;;;;;;;16.43;9.93;;;;;;;;;;6246598;28;20053;-90
2023/11/22 08:32:20;;;;;;;14.85;9.95;;;;;;;;;;6248892;28;20065;-90
2023/11/22 08:35:23;;;;;;;14.93;10.00;;;;;;;;;;6233379;28;20112;-90
2023/11/22 08:38:26;;;;;;;17.70;9.80;;;;;;;;;;6247741;28;20346;-90
2023/11/22 08:41:29;;;;;;;19.42;10.40;;;;;;;;;;6232266;28;20050;-89
2023/11/22 08:44:31;;;;;;;18.77;10.32;;;;;;;;;;6250389;28;20045;-89
2023/11/22 08:47:35;;;;;;;17.60;9.95;;;;;;;;;;6249929;28;20042;-89
2023/11/22 08:50:37;;;;;;;19.40;10.88;;;;;;;;;;6248770;28;20095;-89
2023/11/22 08:53:39;;;;;;;15.93;10.70;;;;;;;;;;6250652;28;20326;-88
2023/11/22 08:56:42;;;;;;;21.95;11.32;;;;;;;;;;6244823;28;20049;-89
2023/11/22 08:59:44;;;;;;;23.43;10.87;;;;;;;;;;6251198;28;20205;-90
2023/11/22 09:02:47;;;;;;;17.55;11.13;;;;;;;;;;6234987;28;20260;-89
2023/11/22 09:05:50;;;;;;;20.27;10.45;;;;;;;;;;6248476;28;20050;-88
2023/11/22 09:08:52;;;;;;;23.17;12.18;;;;;;;;;;6244583;28;20261;-90
2023/11/22 09:11:54;;;;;;;19.58;10.35;;;;;;;;;;6247547;28;20141;-88
2023/11/22 09:14:55;;;;;;;16.73;10.15;;;;;;;;;;6247001;28;20069;-90
2023/11/22 09:17:59;;;;;;;15.65;10.68;;;;;;;;;;6249699;28;20045;-90
2023/11/22 09:21:04;;;;;;;20.70;10.75;;;;;;;;;;6242983;28;20245;-90
2023/11/22 09:24:07;;;;;;;16.42;9.88;;;;;;;;;;6248696;28;20037;-90
2023/11/22 09:27:11;;;;;;;20.13;11.35;;;;;;;;;;6251309;28;20058;-89
2023/11/22 09:30:18;;;;;;;14.57;9.30;;;;;;;;;;6247857;28;20056;-88
2023/11/22 09:33:22;;;;;;;12.15;8.18;;;;;;;;;;6227996;28;20050;-88
2023/11/22 09:36:27;;;;;;;15.85;8.73;;;;;;;;;;6243721;28;20058;-87
2023/11/22 09:39:29;;;;;;;18.35;8.75;;;;;;;;;;6245476;28;20045;-86
2023/11/22 09:42:31;;;;;;;15.68;9.13;;;;;;;;;;6247896;28;20057;-86
2023/11/22 09:45:33;;;;;;;13.80;8.93;;;;;;;;;;6246012;28;20053;-87
2023/11/22 09:48:37;;;;;;;15.30;8.38;;;;;;;;;;6247122;28;20144;-87
2023/11/22 09:51:41;;;;;;;14.35;9.20;;;;;;;;;;6249250;28;20065;-87
2023/11/22 09:54:43;;;;;;;12.23;8.60;;;;;;;;;;6244340;28;20120;-87
2023/11/22 09:57:45;;;;;;;21.92;9.00;;;;;;;;;;6247607;28;20054;-86
2023/11/22 10:00:47;;;;;;;14.70;8.25;;;;;;;;;;6244565;28;20053;-88
2023/11/22 10:03:51;;;;;;;14.43;8.00;;;;;;;;;;6247774;28;20141;-87
2023/11/22 10:06:53;;;;;;;13.07;6.82;;;;;;;;;;6245487;28;20061;-87
2023/11/22 10:09:57;;;;;;;13.70;7.22;;;;;;;;;;6241376;28;20054;-87
2023/11/22 10:13:01;;;;;;;11.82;6.88;;;;;;;;;;6247959;28;20049;-87
2023/11/22 10:16:10;;;;;;;;;;;;;;;;;;6248429;28;20049;-88
2023/11/22 10:19:13;;;;;;;11.50;6.88;;;;;;;;;;6242102;28;19956;-86
2023/11/22 10:22:17;;;;;;;;;;;;;;;;;;6248264;28;20061;-88
2023/11/22 10:25:19;;;;;;;8.65;4.72;;;;;;;;;;6247317;28;20205;-88
2023/11/22 10:28:22;;;;;;;8.65;5.05;;;;;;;;;;6241443;28;20064;-87
2023/11/22 10:31:25;;;;;;;9.23;4.35;;;;;;;;;;6230185;28;20056;-89
2023/11/22 10:34:32;;;;;;;6.57;3.43;;;;;;;;;;6228247;28;20056;-86
2023/11/22 10:37:36;;;;;;;5.78;3.22;;;;;;;;;;6243981;28;20448;-88
2023/11/22 10:40:38;;;;;;;9.47;4.00;;;;;;;;;;6248239;28;20336;-88
2023/11/22 10:43:41;;;;;;;6.13;3.78;;;;;;;;;;6247506;28;20077;-88
2023/11/22 10:46:45;;;;;;;7.95;4.00;;;;;;;;;;6241889;28;20235;-88
2023/11/22 10:49:49;;;;;;;7.95;3.67;;;;;;;;;;6248213;28;20056;-89
2023/11/22 10:52:55;;;;;;;7.57;3.70;;;;;;;;;;6246147;28;20061;-88
2023/11/22 10:56:04;;;;;;;3.97;2.65;;;;;;;;;;6246781;28;20121;-89
2023/11/22 10:59:09;;;;;;;5.50;3.00;;;;;;;;;;6245797;28;20053;-89
2023/11/22 11:02:13;;;;;;;6.53;3.00;;;;;;;;;;6226894;28;20368;-88
2023/11/22 11:05:22;;;;;;;5.20;2.80;;;;;;;;;;6247596;28;20049;-89
2023/11/22 11:08:27;;;;;;;6.20;3.17;;;;;;;;;;6242459;28;20057;-88
2023/11/22 11:11:29;;;;;;;4.22;3.17;;;;;;;;;;6245063;28;20056;-90
2023/11/22 11:14:31;;;;;;;9.63;3.70;;;;;;;;;;6245406;28;20070;-90
2023/11/22 11:17:33;;;;;;;6.32;3.00;;;;;;;;;;6246416;28;20037;-90
2023/11/22 11:20:47;;;;;;;7.90;3.22;;;;;;;;;;6249631;28;20057;-89
2023/11/22 11:23:55;;;;;;;6.03;3.63;;;;;;;;;;6248042;28;20123;-89
2023/11/22 11:26:56;;;;;;;6.22;3.88;;;;;;;;;;6246986;28;20100;-87
2023/11/22 11:29:59;;;;;;;7.15;3.78;;;;;;;;;;6234638;28;20123;-88
2023/11/22 11:33:02;;;;;;;4.72;3.47;;;;;;;;;;6252238;28;20256;-88
2023/11/22 11:36:06;;;;;;;6.82;3.63;;;;;;;;;;6251015;28;20054;-89
2023/11/22 11:39:14;;;;;;;8.07;4.40;;;;;;;;;;6249698;28;20069;-93
2023/11/22 11:42:16;;;;;;;17.17;9.63;;;;;;;;;;6252427;28;20116;-90
2023/11/22 11:45:18;;;;;;;69.78;38.47;;;;;;;;;;6252851;28;20049;-92
2023/11/22 11:48:20;;;;;;;52.65;24.90;;;;;;;;;;6250372;28;20086;-92
2023/11/22 11:51:25;;;;;;;30.63;16.45;;;;;;;;;;6246671;28;20061;-92
2023/11/22 11:54:27;;;;;;;10.77;6.10;;;;;;;;;;6249487;28;20083;-90
2023/11/22 11:57:32;;;;;;;15.82;8.38;;;;;;;;;;6233406;28;20062;-88
2023/11/22 12:00:34;;;;;;;10.32;3.95;;;;;;;;;;6247511;28;20120;-87
2023/11/22 12:03:38;;;;;;;7.60;3.53;;;;;;;;;;6245211;28;20341;-89
2023/11/22 12:06:41;;;;;;;6.05;3.67;;;;;;;;;;6246239;28;20046;-88
2023/11/22 12:09:43;;;;;;;;;;;;;;;;;;6247536;28;20046;-88
2023/11/22 12:12:46;;;;;;;5.30;2.95;;;;;;;;;;6249580;28;19929;-87
2023/11/22 12:15:48;;;;;;;;;;;;;;;;;;6247296;28;20064;-88
2023/11/22 12:18:51;;;;;;;5.03;3.13;;;;;;;;;;6246594;28;19920;-87
2023/11/22 12:21:54;;;;;;;8.50;2.90;;;;;;;;;;6247473;28;20503;-89
2023/11/22 12:24:56;;;;;;;4.85;3.08;;;;;;;;;;6248276;28;20893;-87
2023/11/22 12:27:58;;;;;;;4.65;3.10;;;;;;;;;;6248239;28;20137;-87
2023/11/22 12:31:09;;;;;;;4.78;3.17;;;;;;;;;;6243541;28;20061;-88
2023/11/22 12:34:11;;;;;;;4.25;3.10;;;;;;;;;;6248406;28;20049;-88
2023/11/22 12:37:15;;;;;;;4.57;2.90;;;;;;;;;;6246500;28;20049;-89
2023/11/22 12:40:17;;;;;;;4.45;2.85;;;;;;;;;;6251915;28;20064;-89
2023/11/22 12:43:20;;;;;;;6.35;3.17;;;;;;;;;;6247742;28;20155;-90
2023/11/22 12:46:22;;;;;;;4.90;2.88;;;;;;;;;;6247364;28;20055;-87
2023/11/22 12:49:24;;;;;;;3.70;2.72;;;;;;;;;;6245236;28;20057;-89
2023/11/22 12:52:29;;;;;;;6.25;2.60;;;;;;;;;;6245996;28;20057;-86
2023/11/22 12:55:32;;;;;;;4.18;1.90;;;;;;;;;;6218815;28;20064;-89
2023/11/22 12:58:34;;;;;;;34.80;19.88;;;;;;;;;;6253849;28;20068;-93
2023/11/22 13:01:36;;;;;;;23.83;13.77;;;;;;;;;;6251267;28;20049;-93
2023/11/22 13:04:38;;;;;;;21.30;12.30;;;;;;;;;;6233594;28;20053;-90
2023/11/22 13:07:43;;;;;;;4.35;2.42;;;;;;;;;;6244127;28;20045;-88
2023/11/22 13:10:46;;;;;;;2.92;1.83;;;;;;;;;;6243032;28;20069;-89
2023/11/22 13:13:48;;;;;;;2.70;1.63;;;;;;;;;;6241489;28;20100;-90
2023/11/22 13:16:50;;;;;;;3.63;1.70;;;;;;;;;;6242256;28;20108;-88
2023/11/22 13:19:51;;;;;;;3.67;2.10;;;;;;;;;;6242875;28;20050;-89
2023/11/22 13:22:55;;;;;;;2.92;1.73;;;;;;;;;;6248329;28;20081;-89
2023/11/22 13:25:57;;;;;;;;;;;;;;;;;;6244921;28;20061;-90
2023/11/22 13:28:59;;;;;;;2.60;1.70;;;;;;;;;;6247101;28;19935;-89
2023/11/22 13:32:01;;;;;;;3.22;1.85;;;;;;;;;;6242630;28;20080;-89
2023/11/22 13:35:10;;;;;;;2.97;1.80;;;;;;;;;;6245493;28;20049;-89
2023/11/22 13:38:14;;;;;;;3.05;1.60;;;;;;;;;;6250866;28;20055;-88
2023/11/22 13:41:16;;;;;;;3.47;1.75;;;;;;;;;;6243703;28;20041;-87
2023/11/22 13:44:18;;;;;;;4.10;1.52;;;;;;;;;;6247098;28;20125;-89
2023/11/22 13:47:21;;;;;;;4.28;1.52;;;;;;;;;;6245925;28;20050;-90
2023/11/22 13:50:23;;;;;;;2.60;1.40;;;;;;;;;;6243297;28;20121;-89
2023/11/22 13:53:30;;;;;;;3.13;1.60;;;;;;;;;;6242166;28;20065;-90
2023/11/22 13:56:33;;;;;;;4.63;1.73;;;;;;;;;;6247122;28;20053;-91
2023/11/22 13:59:55;;;;;;;4.50;1.53;;;;;;;;;;6230281;28;20049;-92
2023/11/22 14:03:04;;;;;;;1.98;1.45;;;;;;;;;;6242474;28;20055;-91
2023/11/22 14:06:06;;;;;;;3.55;1.83;;;;;;;;;;6245864;28;20050;-92
2023/11/22 14:09:12;;;;;;;4.20;1.77;;;;;;;;;;6243505;28;20054;-90
2023/11/22 14:12:14;;;;;;;2.42;1.50;;;;;;;;;;6249069;28;20322;-89
2023/11/22 14:15:16;;;;;;;3.33;1.75;;;;;;;;;;6245488;28;20048;-91
2023/11/22 14:18:18;;;;;;;5.88;1.70;;;;;;;;;;6244775;28;20054;-89
2023/11/22 14:21:20;;;;;;;3.00;1.88;;;;;;;;;;6243885;28;20064;-91
2023/11/22 14:24:23;;;;;;;3.92;1.73;;;;;;;;;;6246725;28;20218;-88
2023/11/22 14:27:25;;;;;;;4.72;2.58;;;;;;;;;;6234924;28;20075;-87
2023/11/22 14:30:29;;;;;;;4.00;2.03;;;;;;;;;;6245605;28;20054;-89
2023/11/22 14:33:32;;;;;;;4.03;2.55;;;;;;;;;;6244438;28;20041;-89
2023/11/22 14:36:36;;;;;;;4.45;2.25;;;;;;;;;;6242328;28;20434;-87
2023/11/22 14:39:40;;;;;;;3.95;2.67;;;;;;;;;;6241032;28;20148;-88
2023/11/22 14:42:42;;;;;;;3.58;2.35;;;;;;;;;;6242099;28;20053;-88
2023/11/22 14:45:44;;;;;;;3.27;2.67;;;;;;;;;;6238220;28;20041;-90
2023/11/22 14:48:48;;;;;;;5.38;2.78;;;;;;;;;;6242919;28;20095;-90
2023/11/22 14:51:50;;;;;;;4.63;2.35;;;;;;;;;;6229667;28;20051;-90
2023/11/22 14:54:56;;;;;;;4.93;2.70;;;;;;;;;;6252106;28;20326;-90
2023/11/22 14:57:59;;;;;;;6.88;3.30;;;;;;;;;;6224830;28;20049;-89
2023/11/22 15:01:01;;;;;;;4.55;2.83;;;;;;;;;;6249697;28;20053;-90
2023/11/22 15:04:03;;;;;;;6.90;3.10;;;;;;;;;;6256010;28;20072;-88
2023/11/22 15:07:06;;;;;;;7.50;3.80;;;;;;;;;;6236496;28;20050;-90
2023/11/22 15:13:27;;;;;;;4.65;2.95;;;;;;;;;;6234020;28;20456;-86
2023/11/22 15:16:31;;;;;;;5.97;3.70;;;;;;;;;;6253051;28;20127;-88
2023/11/22 15:19:33;;;;;;;8.48;4.38;;;;;;;;;;6235711;28;20049;-88
2023/11/22 15:22:34;;;;;;;6.18;3.75;;;;;;;;;;6248699;28;20065;-89
2023/11/22 15:25:38;;;;;;;5.85;4.22;;;;;;;;;;6248766;28;20042;-89
2023/11/22 15:28:40;;;;;;;8.27;3.70;;;;;;;;;;6251839;28;20325;-88
2023/11/22 15:31:42;;;;;;;6.10;3.90;;;;;;;;;;6250893;28;20253;-88
2023/11/22 15:34:43;;;;;;;6.55;4.20;;;;;;;;;;6249609;28;20388;-88
2023/11/22 15:37:46;;;;;;;5.05;3.55;;;;;;;;;;6249621;28;20234;-88
2023/11/22 15:40:51;;;;;;;6.50;3.63;;;;;;;;;;6246594;28;20057;-87
2023/11/22 15:43:55;;;;;;;6.90;4.00;;;;;;;;;;6252942;28;20057;-90
2023/11/22 15:46:57;;;;;;;8.75;3.92;;;;;;;;;;6248802;28;20171;-89
2023/11/22 15:49:59;;;;;;;9.82;4.22;;;;;;;;;;6242422;28;20050;-89
2023/11/22 15:53:01;;;;;;;8.00;4.07;;;;;;;;;;6247830;28;20054;-89
2023/11/22 15:56:07;;;;;;;7.75;4.25;;;;;;;;;;6247603;28;20084;-88
2023/11/22 15:59:09;;;;;;;8.77;3.80;;;;;;;;;;6244850;28;20170;-89
2023/11/22 16:02:11;;;;;;;70.72;34.60;;;;;;;;;;6247007;28;20053;-90
2023/11/22 16:05:14;;;;;;;23.77;11.68;;;;;;;;;;6250630;28;20055;-88
2023/11/22 16:08:16;;;;;;;54.50;23.30;;;;;;;;;;6249990;28;20185;-90
2023/11/22 16:11:19;;;;;;;21.33;10.75;;;;;;;;;;6248727;28;20053;-90
2023/11/22 16:14:21;;;;;;;111.82;49.42;;;;;;;;;;6250391;28;20061;-88
2023/11/22 16:17:23;;;;;;;17.90;7.28;;;;;;;;;;6250680;28;20069;-88
2023/11/22 16:20:26;;;;;;;6.88;4.00;;;;;;;;;;6248098;28;20092;-89
2023/11/22 16:23:28;;;;;;;6.45;3.90;;;;;;;;;;6245765;28;20064;-88
2023/11/22 16:26:32;;;;;;;6.82;3.83;;;;;;;;;;6247641;28;20054;-89
2023/11/22 16:29:34;;;;;;;6.72;3.72;;;;;;;;;;6198297;28;20098;-87
2023/11/22 16:32:37;;;;;;;6.32;3.72;;;;;;;;;;6246602;28;20065;-88
2023/11/22 16:35:39;;;;;;;7.90;4.23;;;;;;;;;;6246634;28;20053;-90
2023/11/22 16:38:40;;;;;;;8.00;3.72;;;;;;;;;;6245843;28;20239;-85
2023/11/22 16:41:44;;;;;;;6.82;3.75;;;;;;;;;;6230147;28;20053;-86
2023/11/22 16:44:46;;;;;;;5.72;4.10;;;;;;;;;;6245102;28;20058;-89
2023/11/22 16:47:48;;;;;;;10.05;4.38;;;;;;;;;;6245095;28;20069;-88
2023/11/22 16:50:52;;;;;;;7.55;3.88;;;;;;;;;;6227476;28;20091;-88
2023/11/22 16:53:54;;;;;;;7.50;4.13;;;;;;;;;;6246978;28;20053;-88
2023/11/22 16:56:57;;;;;;;7.05;4.28;;;;;;;;;;6247735;28;20054;-89
2023/11/22 17:00:00;;;;;;;7.43;4.22;;;;;;;;;;6247289;28;20053;-88
2023/11/22 17:03:02;;;;;;;7.50;4.07;;;;;;;;;;6245529;28;20200;-87
2023/11/22 17:06:04;;;;;;;7.95;4.30;;;;;;;;;;6228901;28;20329;-88
2023/11/22 17:09:06;;;;;;;9.75;4.20;;;;;;;;;;6222755;28;20470;-87
2023/11/22 17:12:10;;;;;;;10.93;4.50;;;;;;;;;;6244483;28;20076;-87
2023/11/22 17:15:12;;;;;;;9.60;4.40;;;;;;;;;;6226638;28;20073;-87
2023/11/22 17:18:14;;;;;;;7.82;4.85;;;;;;;;;;6245300;28;20053;-87
2023/11/22 17:21:17;;;;;;;8.57;4.40;;;;;;;;;;6244150;28;20068;-87
2023/11/22 17:24:19;;;;;;;9.45;5.25;;;;;;;;;;6244751;28;20298;-88
2023/11/22 17:27:22;;;;;;;13.18;5.05;;;;;;;;;;6244891;28;20057;-87
2023/11/22 17:30:24;;;;;;;9.63;4.95;;;;;;;;;;6249688;28;20332;-92
2023/11/22 17:33:28;;;;;;;8.00;4.75;;;;;;;;;;6246504;28;20222;-87
2023/11/22 17:36:30;;;;;;;;;;;;;;;;;;6244942;28;20073;-86
2023/11/22 17:39:32;;;;;;;8.35;5.00;;;;;;;;;;6252019;28;20000;-88
2023/11/22 17:42:38;;;;;;;10.45;4.85;;;;;;;;;;6246414;28;20049;-89
2023/11/22 17:45:40;;;;;;;11.45;5.32;;;;;;;;;;6190594;28;20134;-87
2023/11/22 17:48:42;;;;;;;12.02;5.82;;;;;;;;;;6249229;28;20303;-88
2023/11/22 17:51:46;;;;;;;8.13;5.63;;;;;;;;;;6243673;28;20317;-90
2023/11/22 17:54:48;;;;;;;11.55;5.80;;;;;;;;;;6241892;28;20107;-90
2023/11/22 17:57:51;;;;;;;11.65;5.07;;;;;;;;;;6224192;28;20335;-90
2023/11/22 18:00:56;;;;;;;10.20;5.40;;;;;;;;;;6212681;28;20049;-89
2023/11/22 18:03:58;;;;;;;16.08;5.53;;;;;;;;;;6226754;28;20354;-88
2023/11/22 18:07:00;;;;;;;12.65;5.10;;;;;;;;;;6246813;28;20198;-88
2023/11/22 18:10:02;;;;;;;11.25;5.20;;;;;;;;;;6244413;28;20116;-89
2023/11/22 18:13:09;;;;;;;11.63;5.38;;;;;;;;;;6245987;28;20068;-90
2023/11/22 18:16:12;;;;;;;12.93;5.65;;;;;;;;;;6247169;28;20092;-89
2023/11/22 18:19:14;;;;;;;11.57;6.00;;;;;;;;;;6240293;28;20318;-89
2023/11/22 18:22:15;;;;;;;12.25;5.47;;;;;;;;;;6243718;28;20063;-88
2023/11/22 18:25:17;;;;;;;11.07;6.60;;;;;;;;;;6241828;28;20084;-89
2023/11/22 18:28:22;;;;;;;15.52;7.72;;;;;;;;;;6243566;28;20052;-88